sensor_id;sensor_type;location;lat;lon;timestamp;P1;durP1;ratioP1;P2;durP2;ratioP2
22476;SDS011;65006;51.698;-0.292;2023-02-10T00:01:38;19.73;;;6.13;;
22476;SDS011;65006;51.698;-0.292;2023-02-10T00:04:04;16.27;;;5.65;;
22476;SDS011;65006;51.698;-0.292;2023-02-10T00:06:32;12.77;;;5.47;;
22476;SDS011;65006;51.698;-0.292;2023-02-10T00:08:59;15.88;;;6.50;;
22476;SDS011;65006;51.698;-0.292;2023-02-10T00:11:25;11.63;;;4.88;;
22476;SDS011;65006;51.698;-0.292;2023-02-10T00:14:13;13.07;;;5.32;;
22476;SDS011;65006;51.698;-0.292;2023-02-10T00:16:39;14.48;;;4.88;;
22476;SDS011;65006;51.698;-0.292;2023-02-10T00:19:05;17.13;;;5.05;;
22476;SDS011;65006;51.698;-0.292;2023-02-10T00:21:31;11.35;;;5.10;;
22476;SDS011;65006;51.698;-0.292;2023-02-10T00:23:57;17.58;;;4.57;;
22476;SDS011;65006;51.698;-0.292;2023-02-10T00:26:23;8.98;;;4.35;;
22476;SDS011;65006;51.698;-0.292;2023-02-10T00:28:50;13.60;;;5.10;;
22476;SDS011;65006;51.698;-0.292;2023-02-10T00:31:16;12.77;;;3.63;;
22476;SDS011;65006;51.698;-0.292;2023-02-10T00:33:46;14.27;;;4.20;;
22476;SDS011;65006;51.698;-0.292;2023-02-10T00:38:39;13.38;;;3.90;;
22476;SDS011;65006;51.698;-0.292;2023-02-10T00:43:31;10.68;;;4.75;;
22476;SDS011;65006;51.698;-0.292;2023-02-10T00:45:57;10.52;;;4.18;;
22476;SDS011;65006;51.698;-0.292;2023-02-10T00:48:23;10.50;;;3.63;;
22476;SDS011;65006;51.698;-0.292;2023-02-10T00:50:50;10.70;;;4.00;;
22476;SDS011;65006;51.698;-0.292;2023-02-10T00:53:16;10.68;;;4.93;;
22476;SDS011;65006;51.698;-0.292;2023-02-10T00:55:42;9.95;;;3.95;;
22476;SDS011;65006;51.698;-0.292;2023-02-10T00:58:09;9.32;;;4.25;;
22476;SDS011;65006;51.698;-0.292;2023-02-10T01:00:35;15.40;;;5.10;;
22476;SDS011;65006;51.698;-0.292;2023-02-10T01:03:01;18.63;;;5.18;;
22476;SDS011;65006;51.698;-0.292;2023-02-10T01:05:28;14.70;;;4.70;;
22476;SDS011;65006;51.698;-0.292;2023-02-10T01:07:54;9.40;;;4.05;;
22476;SDS011;65006;51.698;-0.292;2023-02-10T01:10:20;11.07;;;4.95;;
22476;SDS011;65006;51.698;-0.292;2023-02-10T01:12:47;17.55;;;5.22;;
22476;SDS011;65006;51.698;-0.292;2023-02-10T01:15:13;7.13;;;4.70;;
22476;SDS011;65006;51.698;-0.292;2023-02-10T01:17:39;11.27;;;5.60;;
22476;SDS011;65006;51.698;-0.292;2023-02-10T01:20:05;14.43;;;5.32;;
22476;SDS011;65006;51.698;-0.292;2023-02-10T01:22:32;17.00;;;5.78;;
22476;SDS011;65006;51.698;-0.292;2023-02-10T01:24:58;15.68;;;6.25;;
22476;SDS011;65006;51.698;-0.292;2023-02-10T01:27:24;9.85;;;5.18;;
22476;SDS011;65006;51.698;-0.292;2023-02-10T01:29:50;10.93;;;5.45;;
22476;SDS011;65006;51.698;-0.292;2023-02-10T01:32:16;15.70;;;5.97;;
22476;SDS011;65006;51.698;-0.292;2023-02-10T01:34:42;12.45;;;5.53;;
22476;SDS011;65006;51.698;-0.292;2023-02-10T01:37:09;21.00;;;6.57;;
22476;SDS011;65006;51.698;-0.292;2023-02-10T01:39:35;16.35;;;5.40;;
22476;SDS011;65006;51.698;-0.292;2023-02-10T01:42:01;18.27;;;5.65;;
22476;SDS011;65006;51.698;-0.292;2023-02-10T01:46:53;13.15;;;5.07;;
22476;SDS011;65006;51.698;-0.292;2023-02-10T01:51:48;16.60;;;6.15;;
22476;SDS011;65006;51.698;-0.292;2023-02-10T01:54:17;9.65;;;4.95;;
22476;SDS011;65006;51.698;-0.292;2023-02-10T01:56:43;13.68;;;5.35;;
22476;SDS011;65006;51.698;-0.292;2023-02-10T01:59:10;9.43;;;4.97;;
22476;SDS011;65006;51.698;-0.292;2023-02-10T02:01:36;8.93;;;4.88;;
22476;SDS011;65006;51.698;-0.292;2023-02-10T02:04:02;11.98;;;4.75;;
22476;SDS011;65006;51.698;-0.292;2023-02-10T02:06:28;14.38;;;4.82;;
22476;SDS011;65006;51.698;-0.292;2023-02-10T02:08:54;13.40;;;5.20;;
22476;SDS011;65006;51.698;-0.292;2023-02-10T02:11:30;15.23;;;4.60;;
22476;SDS011;65006;51.698;-0.292;2023-02-10T02:14:15;9.13;;;4.75;;
22476;SDS011;65006;51.698;-0.292;2023-02-10T02:36:59;14.20;;;4.68;;
22476;SDS011;65006;51.698;-0.292;2023-02-10T02:39:28;17.00;;;5.15;;
22476;SDS011;65006;51.698;-0.292;2023-02-10T02:45:18;19.45;;;6.10;;
22476;SDS011;65006;51.698;-0.292;2023-02-10T02:50:20;9.98;;;4.80;;
22476;SDS011;65006;51.698;-0.292;2023-02-10T02:55:21;14.20;;;5.13;;
22476;SDS011;65006;51.698;-0.292;2023-02-10T02:57:53;8.38;;;3.95;;
22476;SDS011;65006;51.698;-0.292;2023-02-10T03:00:23;17.42;;;4.55;;
22476;SDS011;65006;51.698;-0.292;2023-02-10T03:02:50;11.52;;;3.90;;
22476;SDS011;65006;51.698;-0.292;2023-02-10T03:05:22;19.77;;;4.13;;
22476;SDS011;65006;51.698;-0.292;2023-02-10T03:07:52;10.85;;;4.10;;
22476;SDS011;65006;51.698;-0.292;2023-02-10T03:10:18;13.68;;;4.05;;
22476;SDS011;65006;51.698;-0.292;2023-02-10T03:12:46;14.63;;;4.90;;
22476;SDS011;65006;51.698;-0.292;2023-02-10T03:15:12;11.38;;;4.03;;
22476;SDS011;65006;51.698;-0.292;2023-02-10T03:17:38;17.98;;;4.68;;
22476;SDS011;65006;51.698;-0.292;2023-02-10T03:20:05;12.77;;;4.03;;
22476;SDS011;65006;51.698;-0.292;2023-02-10T03:24:57;11.65;;;3.72;;
22476;SDS011;65006;51.698;-0.292;2023-02-10T03:27:23;10.25;;;3.90;;
22476;SDS011;65006;51.698;-0.292;2023-02-10T03:29:49;10.48;;;4.30;;
22476;SDS011;65006;51.698;-0.292;2023-02-10T03:32:17;12.02;;;4.05;;
22476;SDS011;65006;51.698;-0.292;2023-02-10T03:34:44;18.48;;;5.18;;
22476;SDS011;65006;51.698;-0.292;2023-02-10T03:37:10;13.68;;;4.65;;
22476;SDS011;65006;51.698;-0.292;2023-02-10T03:42:04;14.02;;;5.05;;
22476;SDS011;65006;51.698;-0.292;2023-02-10T03:44:30;9.10;;;4.13;;
22476;SDS011;65006;51.698;-0.292;2023-02-10T03:46:56;17.67;;;4.63;;
22476;SDS011;65006;51.698;-0.292;2023-02-10T03:49:22;6.82;;;3.65;;
22476;SDS011;65006;51.698;-0.292;2023-02-10T03:51:48;11.63;;;4.05;;
22476;SDS011;65006;51.698;-0.292;2023-02-10T03:54:14;8.00;;;3.75;;
22476;SDS011;65006;51.698;-0.292;2023-02-10T03:56:40;13.18;;;4.55;;
22476;SDS011;65006;51.698;-0.292;2023-02-10T03:59:06;12.85;;;5.28;;
22476;SDS011;65006;51.698;-0.292;2023-02-10T04:01:32;31.67;;;5.40;;
22476;SDS011;65006;51.698;-0.292;2023-02-10T04:03:59;14.05;;;4.93;;
22476;SDS011;65006;51.698;-0.292;2023-02-10T04:06:25;9.65;;;5.55;;
22476;SDS011;65006;51.698;-0.292;2023-02-10T04:08:51;16.90;;;5.90;;
22476;SDS011;65006;51.698;-0.292;2023-02-10T04:11:17;14.20;;;4.18;;
22476;SDS011;65006;51.698;-0.292;2023-02-10T04:13:44;13.10;;;5.35;;
22476;SDS011;65006;51.698;-0.292;2023-02-10T04:16:11;13.82;;;4.30;;
22476;SDS011;65006;51.698;-0.292;2023-02-10T04:18:38;11.30;;;5.22;;
22476;SDS011;65006;51.698;-0.292;2023-02-10T04:21:06;14.95;;;5.68;;
22476;SDS011;65006;51.698;-0.292;2023-02-10T04:23:33;12.75;;;4.78;;
22476;SDS011;65006;51.698;-0.292;2023-02-10T04:25:59;15.07;;;5.13;;
22476;SDS011;65006;51.698;-0.292;2023-02-10T04:28:26;14.32;;;5.15;;
22476;SDS011;65006;51.698;-0.292;2023-02-10T04:33:19;8.38;;;3.65;;
22476;SDS011;65006;51.698;-0.292;2023-02-10T04:35:47;9.55;;;3.75;;
22476;SDS011;65006;51.698;-0.292;2023-02-10T04:38:13;7.70;;;3.50;;
22476;SDS011;65006;51.698;-0.292;2023-02-10T04:40:39;13.48;;;4.32;;
22476;SDS011;65006;51.698;-0.292;2023-02-10T04:43:05;13.68;;;4.60;;
22476;SDS011;65006;51.698;-0.292;2023-02-10T04:45:32;9.23;;;4.13;;
22476;SDS011;65006;51.698;-0.292;2023-02-10T04:48:00;8.50;;;3.33;;
22476;SDS011;65006;51.698;-0.292;2023-02-10T04:50:26;16.17;;;4.00;;
22476;SDS011;65006;51.698;-0.292;2023-02-10T04:52:52;13.95;;;3.33;;
22476;SDS011;65006;51.698;-0.292;2023-02-10T04:55:18;7.25;;;3.38;;
22476;SDS011;65006;51.698;-0.292;2023-02-10T04:57:44;10.27;;;4.20;;
22476;SDS011;65006;51.698;-0.292;2023-02-10T05:00:10;9.00;;;2.85;;
22476;SDS011;65006;51.698;-0.292;2023-02-10T05:02:36;12.75;;;2.72;;
22476;SDS011;65006;51.698;-0.292;2023-02-10T05:05:03;12.88;;;2.95;;
22476;SDS011;65006;51.698;-0.292;2023-02-10T05:09:55;11.98;;;2.90;;
22476;SDS011;65006;51.698;-0.292;2023-02-10T05:12:21;8.55;;;3.15;;
22476;SDS011;65006;51.698;-0.292;2023-02-10T05:14:47;3.10;;;2.63;;
22476;SDS011;65006;51.698;-0.292;2023-02-10T05:17:13;8.25;;;2.80;;
22476;SDS011;65006;51.698;-0.292;2023-02-10T05:19:39;11.48;;;3.03;;
22476;SDS011;65006;51.698;-0.292;2023-02-10T05:22:05;5.07;;;2.92;;
22476;SDS011;65006;51.698;-0.292;2023-02-10T05:24:31;13.75;;;2.80;;
22476;SDS011;65006;51.698;-0.292;2023-02-10T05:26:57;8.43;;;2.80;;
22476;SDS011;65006;51.698;-0.292;2023-02-10T05:29:23;7.72;;;3.00;;
22476;SDS011;65006;51.698;-0.292;2023-02-10T05:31:49;12.65;;;3.03;;
22476;SDS011;65006;51.698;-0.292;2023-02-10T05:34:16;10.63;;;3.10;;
22476;SDS011;65006;51.698;-0.292;2023-02-10T05:36:42;7.82;;;2.67;;
22476;SDS011;65006;51.698;-0.292;2023-02-10T05:39:09;21.95;;;3.00;;
22476;SDS011;65006;51.698;-0.292;2023-02-10T05:41:54;11.70;;;3.35;;
22476;SDS011;65006;51.698;-0.292;2023-02-10T05:44:23;15.93;;;2.80;;
22476;SDS011;65006;51.698;-0.292;2023-02-10T05:46:50;8.48;;;2.72;;
22476;SDS011;65006;51.698;-0.292;2023-02-10T05:49:17;8.23;;;2.65;;
22476;SDS011;65006;51.698;-0.292;2023-02-10T05:51:44;7.45;;;2.70;;
22476;SDS011;65006;51.698;-0.292;2023-02-10T05:54:10;9.77;;;3.10;;
22476;SDS011;65006;51.698;-0.292;2023-02-10T05:56:37;13.38;;;3.10;;
22476;SDS011;65006;51.698;-0.292;2023-02-10T05:59:03;10.88;;;3.38;;
22476;SDS011;65006;51.698;-0.292;2023-02-10T06:01:31;12.52;;;3.33;;
22476;SDS011;65006;51.698;-0.292;2023-02-10T06:03:57;7.72;;;2.90;;
22476;SDS011;65006;51.698;-0.292;2023-02-10T06:06:23;14.07;;;3.15;;
22476;SDS011;65006;51.698;-0.292;2023-02-10T06:08:49;8.32;;;2.90;;
22476;SDS011;65006;51.698;-0.292;2023-02-10T06:11:15;11.68;;;3.15;;
22476;SDS011;65006;51.698;-0.292;2023-02-10T06:13:41;8.43;;;3.00;;
22476;SDS011;65006;51.698;-0.292;2023-02-10T06:16:07;11.38;;;3.00;;
22476;SDS011;65006;51.698;-0.292;2023-02-10T06:18:33;7.57;;;3.35;;
22476;SDS011;65006;51.698;-0.292;2023-02-10T06:21:00;10.27;;;3.97;;
22476;SDS011;65006;51.698;-0.292;2023-02-10T06:23:26;11.57;;;3.22;;
22476;SDS011;65006;51.698;-0.292;2023-02-10T06:25:52;8.63;;;3.35;;
22476;SDS011;65006;51.698;-0.292;2023-02-10T06:28:22;9.98;;;3.85;;
22476;SDS011;65006;51.698;-0.292;2023-02-10T06:30:49;10.57;;;4.43;;
22476;SDS011;65006;51.698;-0.292;2023-02-10T06:33:16;9.90;;;4.32;;
22476;SDS011;65006;51.698;-0.292;2023-02-10T06:38:08;9.85;;;5.18;;
22476;SDS011;65006;51.698;-0.292;2023-02-10T06:40:34;14.25;;;5.13;;
22476;SDS011;65006;51.698;-0.292;2023-02-10T06:43:00;18.45;;;4.95;;
22476;SDS011;65006;51.698;-0.292;2023-02-10T06:45:27;14.98;;;5.97;;
22476;SDS011;65006;51.698;-0.292;2023-02-10T06:47:53;9.90;;;4.95;;
22476;SDS011;65006;51.698;-0.292;2023-02-10T06:50:19;19.33;;;5.13;;
22476;SDS011;65006;51.698;-0.292;2023-02-10T06:52:45;11.45;;;5.05;;
22476;SDS011;65006;51.698;-0.292;2023-02-10T06:57:37;10.32;;;4.70;;
22476;SDS011;65006;51.698;-0.292;2023-02-10T07:00:04;10.95;;;4.82;;
22476;SDS011;65006;51.698;-0.292;2023-02-10T07:02:32;10.07;;;4.40;;
22476;SDS011;65006;51.698;-0.292;2023-02-10T07:04:58;9.73;;;4.28;;
22476;SDS011;65006;51.698;-0.292;2023-02-10T07:07:24;9.63;;;4.57;;
22476;SDS011;65006;51.698;-0.292;2023-02-10T07:09:50;16.65;;;4.53;;
22476;SDS011;65006;51.698;-0.292;2023-02-10T07:12:19;7.72;;;3.85;;
22476;SDS011;65006;51.698;-0.292;2023-02-10T07:14:45;10.55;;;4.47;;
22476;SDS011;65006;51.698;-0.292;2023-02-10T07:17:11;14.77;;;4.40;;
22476;SDS011;65006;51.698;-0.292;2023-02-10T07:19:37;10.60;;;3.92;;
22476;SDS011;65006;51.698;-0.292;2023-02-10T07:22:04;10.85;;;4.68;;
22476;SDS011;65006;51.698;-0.292;2023-02-10T07:24:32;11.95;;;4.63;;
22476;SDS011;65006;51.698;-0.292;2023-02-10T07:29:23;10.27;;;4.28;;
22476;SDS011;65006;51.698;-0.292;2023-02-10T07:31:49;19.20;;;4.60;;
22476;SDS011;65006;51.698;-0.292;2023-02-10T07:34:16;10.48;;;4.13;;
22476;SDS011;65006;51.698;-0.292;2023-02-10T07:36:46;14.93;;;4.03;;
22476;SDS011;65006;51.698;-0.292;2023-02-10T07:39:18;12.18;;;3.83;;
22476;SDS011;65006;51.698;-0.292;2023-02-10T07:41:44;12.73;;;4.75;;
22476;SDS011;65006;51.698;-0.292;2023-02-10T07:44:12;10.98;;;4.95;;
22476;SDS011;65006;51.698;-0.292;2023-02-10T07:46:38;11.63;;;4.65;;
22476;SDS011;65006;51.698;-0.292;2023-02-10T07:49:04;8.05;;;4.65;;
22476;SDS011;65006;51.698;-0.292;2023-02-10T07:51:30;17.60;;;4.50;;
22476;SDS011;65006;51.698;-0.292;2023-02-10T07:53:56;14.70;;;4.50;;
22476;SDS011;65006;51.698;-0.292;2023-02-10T07:56:22;13.02;;;4.97;;
22476;SDS011;65006;51.698;-0.292;2023-02-10T07:58:48;13.40;;;4.63;;
22476;SDS011;65006;51.698;-0.292;2023-02-10T08:01:14;11.65;;;4.35;;
22476;SDS011;65006;51.698;-0.292;2023-02-10T08:06:08;9.05;;;4.32;;
22476;SDS011;65006;51.698;-0.292;2023-02-10T08:08:34;6.85;;;3.95;;
22476;SDS011;65006;51.698;-0.292;2023-02-10T08:11:03;13.25;;;3.95;;
22476;SDS011;65006;51.698;-0.292;2023-02-10T08:13:29;11.82;;;4.32;;
22476;SDS011;65006;51.698;-0.292;2023-02-10T08:15:56;10.30;;;3.88;;
22476;SDS011;65006;51.698;-0.292;2023-02-10T08:18:22;13.20;;;4.68;;
22476;SDS011;65006;51.698;-0.292;2023-02-10T08:20:49;11.98;;;4.90;;
22476;SDS011;65006;51.698;-0.292;2023-02-10T08:23:17;9.68;;;4.32;;
22476;SDS011;65006;51.698;-0.292;2023-02-10T08:28:09;7.03;;;3.40;;
22476;SDS011;65006;51.698;-0.292;2023-02-10T08:30:35;8.90;;;3.88;;
22476;SDS011;65006;51.698;-0.292;2023-02-10T08:33:01;12.25;;;4.15;;
22476;SDS011;65006;51.698;-0.292;2023-02-10T08:35:28;14.90;;;4.38;;
22476;SDS011;65006;51.698;-0.292;2023-02-10T08:37:54;13.63;;;4.03;;
22476;SDS011;65006;51.698;-0.292;2023-02-10T08:40:20;6.20;;;3.63;;
22476;SDS011;65006;51.698;-0.292;2023-02-10T08:42:46;14.68;;;3.90;;
22476;SDS011;65006;51.698;-0.292;2023-02-10T08:45:12;11.05;;;4.55;;
22476;SDS011;65006;51.698;-0.292;2023-02-10T08:47:38;7.90;;;4.03;;
22476;SDS011;65006;51.698;-0.292;2023-02-10T08:50:06;17.95;;;4.25;;
22476;SDS011;65006;51.698;-0.292;2023-02-10T08:52:32;10.93;;;4.43;;
22476;SDS011;65006;51.698;-0.292;2023-02-10T08:54:58;12.88;;;4.00;;
22476;SDS011;65006;51.698;-0.292;2023-02-10T08:57:26;12.85;;;3.97;;
22476;SDS011;65006;51.698;-0.292;2023-02-10T08:59:52;13.63;;;3.28;;
22476;SDS011;65006;51.698;-0.292;2023-02-10T09:02:18;19.02;;;5.10;;
22476;SDS011;65006;51.698;-0.292;2023-02-10T09:04:45;11.10;;;4.63;;
22476;SDS011;65006;51.698;-0.292;2023-02-10T09:07:11;16.25;;;4.40;;
22476;SDS011;65006;51.698;-0.292;2023-02-10T09:09:39;10.95;;;3.90;;
22476;SDS011;65006;51.698;-0.292;2023-02-10T09:12:06;8.25;;;4.10;;
22476;SDS011;65006;51.698;-0.292;2023-02-10T09:14:35;12.55;;;4.25;;
22476;SDS011;65006;51.698;-0.292;2023-02-10T09:17:03;14.55;;;4.65;;
22476;SDS011;65006;51.698;-0.292;2023-02-10T09:19:30;13.50;;;4.45;;
22476;SDS011;65006;51.698;-0.292;2023-02-10T09:21:56;8.98;;;4.03;;
22476;SDS011;65006;51.698;-0.292;2023-02-10T09:24:23;10.43;;;3.67;;
22476;SDS011;65006;51.698;-0.292;2023-02-10T09:26:49;11.85;;;3.70;;
22476;SDS011;65006;51.698;-0.292;2023-02-10T09:29:15;14.00;;;4.05;;
22476;SDS011;65006;51.698;-0.292;2023-02-10T09:31:41;12.32;;;4.18;;
22476;SDS011;65006;51.698;-0.292;2023-02-10T09:34:07;9.02;;;3.78;;
22476;SDS011;65006;51.698;-0.292;2023-02-10T09:36:33;7.38;;;3.70;;
22476;SDS011;65006;51.698;-0.292;2023-02-10T09:39:00;13.20;;;4.20;;
22476;SDS011;65006;51.698;-0.292;2023-02-10T09:44:03;11.10;;;4.28;;
22476;SDS011;65006;51.698;-0.292;2023-02-10T09:54:34;11.27;;;4.28;;
22476;SDS011;65006;51.698;-0.292;2023-02-10T09:57:03;11.63;;;3.88;;
22476;SDS011;65006;51.698;-0.292;2023-02-10T09:59:30;14.88;;;4.03;;
22476;SDS011;65006;51.698;-0.292;2023-02-10T10:02:00;11.60;;;3.50;;
22476;SDS011;65006;51.698;-0.292;2023-02-10T10:04:28;13.18;;;3.63;;
22476;SDS011;65006;51.698;-0.292;2023-02-10T10:06:58;9.95;;;3.55;;
22476;SDS011;65006;51.698;-0.292;2023-02-10T10:09:44;9.57;;;3.95;;
22476;SDS011;65006;51.698;-0.292;2023-02-10T10:12:11;8.30;;;3.72;;
22476;SDS011;65006;51.698;-0.292;2023-02-10T10:14:40;12.48;;;3.88;;
22476;SDS011;65006;51.698;-0.292;2023-02-10T10:24:40;8.95;;;3.60;;
22476;SDS011;65006;51.698;-0.292;2023-02-10T10:32:18;12.73;;;3.25;;
22476;SDS011;65006;51.698;-0.292;2023-02-10T10:34:50;12.18;;;3.72;;
22476;SDS011;65006;51.698;-0.292;2023-02-10T10:37:23;10.60;;;3.78;;
22476;SDS011;65006;51.698;-0.292;2023-02-10T10:39:51;7.75;;;3.10;;
22476;SDS011;65006;51.698;-0.292;2023-02-10T10:45:05;12.00;;;3.50;;
22476;SDS011;65006;51.698;-0.292;2023-02-10T10:47:40;7.18;;;3.33;;
22476;SDS011;65006;51.698;-0.292;2023-02-10T10:50:14;7.53;;;3.50;;
22476;SDS011;65006;51.698;-0.292;2023-02-10T10:52:44;7.10;;;3.22;;
22476;SDS011;65006;51.698;-0.292;2023-02-10T10:55:27;11.90;;;3.85;;
22476;SDS011;65006;51.698;-0.292;2023-02-10T10:57:54;9.18;;;2.85;;
22476;SDS011;65006;51.698;-0.292;2023-02-10T11:00:22;8.85;;;2.47;;
22476;SDS011;65006;51.698;-0.292;2023-02-10T11:02:53;10.80;;;2.75;;
22476;SDS011;65006;51.698;-0.292;2023-02-10T11:05:19;9.35;;;2.88;;
22476;SDS011;65006;51.698;-0.292;2023-02-10T11:07:49;8.95;;;2.92;;
22476;SDS011;65006;51.698;-0.292;2023-02-10T11:10:32;12.82;;;3.03;;
22476;SDS011;65006;51.698;-0.292;2023-02-10T11:12:59;9.40;;;2.88;;
22476;SDS011;65006;51.698;-0.292;2023-02-10T11:15:31;9.27;;;3.05;;
22476;SDS011;65006;51.698;-0.292;2023-02-10T11:17:58;11.98;;;2.42;;
22476;SDS011;65006;51.698;-0.292;2023-02-10T11:20:33;9.55;;;2.67;;
22476;SDS011;65006;51.698;-0.292;2023-02-10T11:23:10;12.65;;;2.85;;
22476;SDS011;65006;51.698;-0.292;2023-02-10T11:25:37;7.13;;;1.95;;
22476;SDS011;65006;51.698;-0.292;2023-02-10T11:28:06;10.45;;;2.38;;
22476;SDS011;65006;51.698;-0.292;2023-02-10T11:30:35;7.22;;;2.00;;
22476;SDS011;65006;51.698;-0.292;2023-02-10T11:33:03;13.45;;;2.17;;
22476;SDS011;65006;51.698;-0.292;2023-02-10T11:35:29;9.73;;;2.28;;
22476;SDS011;65006;51.698;-0.292;2023-02-10T11:38:00;7.00;;;2.38;;
22476;SDS011;65006;51.698;-0.292;2023-02-10T11:40:28;11.25;;;1.80;;
22476;SDS011;65006;51.698;-0.292;2023-02-10T11:42:59;11.77;;;2.05;;
22476;SDS011;65006;51.698;-0.292;2023-02-10T11:45:34;13.98;;;2.50;;
22476;SDS011;65006;51.698;-0.292;2023-02-10T11:48:05;6.97;;;2.25;;
22476;SDS011;65006;51.698;-0.292;2023-02-10T11:50:32;14.10;;;2.00;;
22476;SDS011;65006;51.698;-0.292;2023-02-10T11:52:59;16.20;;;1.88;;
22476;SDS011;65006;51.698;-0.292;2023-02-10T11:55:27;8.40;;;2.13;;
22476;SDS011;65006;51.698;-0.292;2023-02-10T11:58:03;9.60;;;2.58;;
22476;SDS011;65006;51.698;-0.292;2023-02-10T12:09:08;10.75;;;2.15;;
22476;SDS011;65006;51.698;-0.292;2023-02-10T12:14:27;5.63;;;2.28;;
22476;SDS011;65006;51.698;-0.292;2023-02-10T12:19:44;10.93;;;2.55;;
22476;SDS011;65006;51.698;-0.292;2023-02-10T12:22:16;5.78;;;2.50;;
22476;SDS011;65006;51.698;-0.292;2023-02-10T12:30:28;9.65;;;2.15;;
22476;SDS011;65006;51.698;-0.292;2023-02-10T12:35:32;9.48;;;1.73;;
22476;SDS011;65006;51.698;-0.292;2023-02-10T12:48:39;14.57;;;2.58;;
22476;SDS011;65006;51.698;-0.292;2023-02-10T12:53:41;6.20;;;1.75;;
22476;SDS011;65006;51.698;-0.292;2023-02-10T12:56:09;8.50;;;1.88;;
22476;SDS011;65006;51.698;-0.292;2023-02-10T12:58:43;8.88;;;1.95;;
22476;SDS011;65006;51.698;-0.292;2023-02-10T13:01:19;10.95;;;2.30;;
22476;SDS011;65006;51.698;-0.292;2023-02-10T13:03:47;14.40;;;2.33;;
22476;SDS011;65006;51.698;-0.292;2023-02-10T13:08:52;10.95;;;2.25;;
22476;SDS011;65006;51.698;-0.292;2023-02-10T13:14:00;8.02;;;2.45;;
22476;SDS011;65006;51.698;-0.292;2023-02-10T13:16:30;18.83;;;2.80;;
22476;SDS011;65006;51.698;-0.292;2023-02-10T13:18:59;11.43;;;2.47;;
22476;SDS011;65006;51.698;-0.292;2023-02-10T13:21:40;8.80;;;2.38;;
22476;SDS011;65006;51.698;-0.292;2023-02-10T13:24:15;12.20;;;1.88;;
22476;SDS011;65006;51.698;-0.292;2023-02-10T13:29:17;19.02;;;2.63;;
22476;SDS011;65006;51.698;-0.292;2023-02-10T13:34:40;6.32;;;1.90;;
22476;SDS011;65006;51.698;-0.292;2023-02-10T13:37:08;13.60;;;2.78;;
22476;SDS011;65006;51.698;-0.292;2023-02-10T13:39:36;8.27;;;1.95;;
22476;SDS011;65006;51.698;-0.292;2023-02-10T13:42:09;7.10;;;1.70;;
22476;SDS011;65006;51.698;-0.292;2023-02-10T13:44:40;7.68;;;1.90;;
22476;SDS011;65006;51.698;-0.292;2023-02-10T13:49:47;10.40;;;2.22;;
22476;SDS011;65006;51.698;-0.292;2023-02-10T13:52:16;11.07;;;1.67;;
22476;SDS011;65006;51.698;-0.292;2023-02-10T13:54:51;5.10;;;1.38;;
22476;SDS011;65006;51.698;-0.292;2023-02-10T13:57:29;7.95;;;1.95;;
22476;SDS011;65006;51.698;-0.292;2023-02-10T14:02:38;8.05;;;1.50;;
22476;SDS011;65006;51.698;-0.292;2023-02-10T14:05:19;6.32;;;1.73;;
22476;SDS011;65006;51.698;-0.292;2023-02-10T14:07:46;5.32;;;1.50;;
22476;SDS011;65006;51.698;-0.292;2023-02-10T14:13:02;9.38;;;1.58;;
22476;SDS011;65006;51.698;-0.292;2023-02-10T14:15:30;10.90;;;1.65;;
22476;SDS011;65006;51.698;-0.292;2023-02-10T14:17:58;10.05;;;1.58;;
22476;SDS011;65006;51.698;-0.292;2023-02-10T14:20:26;9.80;;;1.83;;
22476;SDS011;65006;51.698;-0.292;2023-02-10T14:22:53;10.57;;;2.00;;
22476;SDS011;65006;51.698;-0.292;2023-02-10T14:25:33;6.63;;;1.13;;
22476;SDS011;65006;51.698;-0.292;2023-02-10T14:28:00;11.60;;;1.58;;
22476;SDS011;65006;51.698;-0.292;2023-02-10T14:30:32;8.13;;;1.77;;
22476;SDS011;65006;51.698;-0.292;2023-02-10T14:32:59;7.53;;;2.10;;
22476;SDS011;65006;51.698;-0.292;2023-02-10T14:35:26;11.52;;;1.50;;
22476;SDS011;65006;51.698;-0.292;2023-02-10T14:37:54;5.28;;;1.40;;
22476;SDS011;65006;51.698;-0.292;2023-02-10T14:40:21;7.28;;;1.50;;
22476;SDS011;65006;51.698;-0.292;2023-02-10T14:42:47;8.73;;;1.40;;
22476;SDS011;65006;51.698;-0.292;2023-02-10T14:45:18;6.47;;;1.30;;
22476;SDS011;65006;51.698;-0.292;2023-02-10T14:47:46;5.60;;;1.63;;
22476;SDS011;65006;51.698;-0.292;2023-02-10T14:53:16;7.30;;;1.55;;
22476;SDS011;65006;51.698;-0.292;2023-02-10T14:55:42;6.05;;;1.25;;
22476;SDS011;65006;51.698;-0.292;2023-02-10T14:58:11;8.80;;;1.20;;
22476;SDS011;65006;51.698;-0.292;2023-02-10T15:00:38;5.78;;;1.48;;
22476;SDS011;65006;51.698;-0.292;2023-02-10T15:03:05;10.45;;;1.80;;
22476;SDS011;65006;51.698;-0.292;2023-02-10T15:05:36;4.38;;;1.42;;
22476;SDS011;65006;51.698;-0.292;2023-02-10T15:08:04;6.65;;;1.17;;
22476;SDS011;65006;51.698;-0.292;2023-02-10T15:10:36;8.15;;;1.88;;
22476;SDS011;65006;51.698;-0.292;2023-02-10T15:13:04;8.65;;;1.75;;
22476;SDS011;65006;51.698;-0.292;2023-02-10T15:15:35;9.02;;;1.90;;
22476;SDS011;65006;51.698;-0.292;2023-02-10T15:18:04;2.92;;;1.42;;
22476;SDS011;65006;51.698;-0.292;2023-02-10T15:20:33;8.55;;;1.75;;
22476;SDS011;65006;51.698;-0.292;2023-02-10T15:27:53;6.07;;;1.35;;
22476;SDS011;65006;51.698;-0.292;2023-02-10T15:32:47;6.70;;;2.05;;
22476;SDS011;65006;51.698;-0.292;2023-02-10T15:35:15;12.25;;;1.85;;
22476;SDS011;65006;51.698;-0.292;2023-02-10T15:37:41;6.97;;;1.48;;
22476;SDS011;65006;51.698;-0.292;2023-02-10T15:40:20;9.98;;;2.17;;
22476;SDS011;65006;51.698;-0.292;2023-02-10T15:43:03;5.10;;;1.50;;
22476;SDS011;65006;51.698;-0.292;2023-02-10T15:45:31;5.20;;;1.38;;
22476;SDS011;65006;51.698;-0.292;2023-02-10T15:48:01;5.72;;;1.58;;
22476;SDS011;65006;51.698;-0.292;2023-02-10T15:50:31;3.40;;;1.20;;
22476;SDS011;65006;51.698;-0.292;2023-02-10T15:53:05;13.50;;;1.80;;
22476;SDS011;65006;51.698;-0.292;2023-02-10T15:55:34;6.40;;;1.92;;
22476;SDS011;65006;51.698;-0.292;2023-02-10T15:58:02;9.18;;;1.58;;
22476;SDS011;65006;51.698;-0.292;2023-02-10T16:00:30;6.20;;;1.55;;
22476;SDS011;65006;51.698;-0.292;2023-02-10T16:02:56;6.35;;;1.67;;
22476;SDS011;65006;51.698;-0.292;2023-02-10T16:05:22;8.52;;;1.20;;
22476;SDS011;65006;51.698;-0.292;2023-02-10T16:07:49;4.55;;;1.55;;
22476;SDS011;65006;51.698;-0.292;2023-02-10T16:10:22;8.05;;;2.22;;
22476;SDS011;65006;51.698;-0.292;2023-02-10T16:12:48;8.98;;;1.60;;
22476;SDS011;65006;51.698;-0.292;2023-02-10T16:15:15;5.95;;;1.80;;
22476;SDS011;65006;51.698;-0.292;2023-02-10T16:17:43;5.30;;;1.58;;
22476;SDS011;65006;51.698;-0.292;2023-02-10T16:20:23;5.13;;;1.40;;
22476;SDS011;65006;51.698;-0.292;2023-02-10T16:22:50;8.75;;;2.40;;
22476;SDS011;65006;51.698;-0.292;2023-02-10T16:25:17;9.77;;;1.58;;
22476;SDS011;65006;51.698;-0.292;2023-02-10T16:27:44;7.13;;;1.95;;
22476;SDS011;65006;51.698;-0.292;2023-02-10T16:30:14;3.72;;;1.10;;
22476;SDS011;65006;51.698;-0.292;2023-02-10T16:32:41;5.75;;;1.25;;
22476;SDS011;65006;51.698;-0.292;2023-02-10T16:35:07;6.07;;;1.30;;
22476;SDS011;65006;51.698;-0.292;2023-02-10T16:37:33;10.57;;;1.50;;
22476;SDS011;65006;51.698;-0.292;2023-02-10T16:39:59;1.30;;;0.90;;
22476;SDS011;65006;51.698;-0.292;2023-02-10T16:42:25;7.32;;;1.38;;
22476;SDS011;65006;51.698;-0.292;2023-02-10T16:44:53;1.92;;;0.88;;
22476;SDS011;65006;51.698;-0.292;2023-02-10T16:47:20;5.55;;;1.60;;
22476;SDS011;65006;51.698;-0.292;2023-02-10T16:49:50;7.38;;;1.80;;
22476;SDS011;65006;51.698;-0.292;2023-02-10T16:52:16;2.95;;;1.55;;
22476;SDS011;65006;51.698;-0.292;2023-02-10T16:54:46;6.43;;;1.65;;
22476;SDS011;65006;51.698;-0.292;2023-02-10T16:57:15;4.65;;;1.30;;
22476;SDS011;65006;51.698;-0.292;2023-02-10T16:59:41;5.82;;;1.40;;
22476;SDS011;65006;51.698;-0.292;2023-02-10T17:02:08;7.65;;;1.90;;
22476;SDS011;65006;51.698;-0.292;2023-02-10T17:04:35;4.38;;;1.40;;